Weather observations for the past three days for
Newberry, Luce County Airport
Metric (Imperial)
Date Time (edt) Wind (kph) Vis. (km) Weather Sky Cond. Temperature (ºC) Relative Humidity Wind Chill (°C) Heat Index (°C) Pressure Precipitation (cm)
Air Dwpt 6 hour altimeter (cm) sea level (mb) 1 hr 3 hr 6 hr
Max. Min.
17 11:55 S 20 16.09 Fair CLR 18 5 43% 75.95 0.0
17 11:35 SE 24 16.09 Fair CLR 17 6 49% 75.95 0.0
17 11:15 S 17 16.09 Fair CLR 16 6 52% 75.97 0.0
17 10:55 S 20 16.09 Fair CLR 15 6 55% 76 0.0
17 10:35 SE 19 16.09 Fair CLR 13 7 67% 76 0.0
17 10:15 SE 13 16.09 Fair CLR 11 7 77% 76 0.0
17 09:55 SE 11 16.09 Fair CLR 10 7 82% 9 76.02 0.0
17 09:35 S 7 16.09 Fair CLR 8 7 93% 7 76.05 0.0
17 09:15 S 9 16.09 Mostly Cloudy BKN001 7 7 100% 5 76.02 0.0
17 08:55 S 9 3.22 Fog/Mist OVC001 6 6 100% 4 76.02 0.0
17 08:35 S 7 4.02 Fog/Mist OVC001 6 6 100% 5 76.02 0.0
17 08:15 S 9 0.80 Fog OVC001 5 5 100% 3 76 0.0
17 07:55 S 15 0.40 Fog BKN001 6 6 5.6 1.5 100% 3 75.97 0.0
17 07:35 S 11 0.80 Fog VV005 4 4 100% 2 75.97 0.0
17 07:15 S 9 0.24 Fog VV000 3 3 100% 1 75.97 0.0
17 06:55 SE 6 0.24 Fog VV000 3 3 100% 75.97 0.0
17 06:35 S 13 0.40 Fog VV002 4 4 100% 1 75.97 0.0
17 05:55 S 7 0.24 Fog VV000 2 2 100% 0 75.97 0.0
17 05:35 S 4 0.40 Fog VV002 3 3 100% 75.97 0.0
17 05:15 SE 4 0.40 Fog VV002 5 5 100% 76 0.0
17 04:55 S 7 6.44 Fog/Mist CLR 4 4 100% 2 76 0.0
17 04:35 SW 11 12.87 Fair CLR 4 4 100% 2 76 0.0
17 04:15 SW 11 16.09 Fair CLR 5 5 100% 3 76 0.0
17 03:55 SW 13 16.09 Fair CLR 5 5 100% 2 75.97 0.0
17 03:35 SW 15 16.09 Fair CLR 4 4 100% 1 75.97 0.0
17 03:15 SW 11 16.09 Fair CLR 3 3 100% 0 75.97 0.0
17 02:55 SW 7 16.09 Fair CLR 2 2 100% 0 75.95 0.0
17 02:35 SW 4 16.09 Fair CLR 2 2 100% 75.97 0.0
17 02:15 SW 7 16.09 Fair CLR 3 2 93% 1 75.95 0.0
17 01:55 S 6 16.09 Fair CLR 3 2 14.4 2.2 93% 75.95 0.0
17 01:35 S 4 16.09 Fair CLR 3 2 93% 75.95 0.0
17 01:15 SE 4 16.09 Fair CLR 3 2 93% 75.97 0.0
17 00:55 S 2 16.09 Fair CLR 4 3 93% 75.97 0.0
17 00:35 SE 2 16.09 Fair CLR 4 3 93% 75.95 0.0
17 00:15 NE 6 16.09 Fair CLR 4 3 93% 75.95 0.0
16 23:55 S 4 16.09 Fair CLR 4 3 93% 75.95 0.0
16 23:35 SE 2 16.09 Fair CLR 6 4 87% 75.95 0.0
16 23:15 E 4 16.09 Fair CLR 7 4 81% 75.95 0.0
16 22:55 E 4 16.09 Fair CLR 7 4 81% 75.95 0.0
16 22:35 E 4 16.09 Fair CLR 8 4 76% 75.95 0.0
16 22:15 E 4 16.09 Fair CLR 8 5 82% 75.92 0.0
16 21:55 E 6 16.09 Fair CLR 8 5 82% 75.92 0.0
16 21:35 SE 2 16.09 Fair CLR 7 5 87% 75.9 0.0
16 21:15 SE 2 16.09 Fair CLR 10 6 76% 75.87 0.0
16 20:55 NE 4 16.09 Fair CLR 11 5 67% 75.87 0.0
16 20:35 N 7 16.09 Fair CLR 13 5 59% 75.84 0.0
16 20:15 N 6 16.09 Fair CLR 13 5 59% 75.84 0.0
16 19:55 N 7 16.09 Fair CLR 14 6 16.5 11.7 59% 75.82 0.0
16 19:35 N 7 16.09 Fair CLR 15 5 51% 75.82 0.0
16 19:15 N 7 16.09 Fair CLR 15 6 55% 75.82 0.0
16 18:55 NE 7 16.09 Fair CLR 15 6 55% 75.82 0.0
16 18:35 N 7 16.09 Fair CLR 15 6 55% 75.79 0.0
16 18:15 Vrbl 6 16.09 Fair CLR 16 5 48% 75.79 0.0
16 17:55 N 9 16.09 Fair CLR 16 6 52% 75.79 0.0
16 17:35 N 13 16.09 Fair CLR 16 5 48% 75.77 0.0
16 17:15 N 9 16.09 Fair CLR 16 5 48% 75.74 0.0
16 16:55 NW 9 16.09 Fair CLR 15 6 55% 75.74 0.0
16 16:35 NW 11 16.09 Fair CLR 16 6 52% 75.74 0.0
16 16:15 N 9 16.09 Fair CLR 15 6 55% 75.74 0.0
16 15:55 Vrbl 6 16.09 Fair CLR 14 5 55% 75.72 0.0
16 15:35 NW 11 16.09 Fair CLR 15 6 55% 75.74 0.0
16 15:15 N 6 16.09 Fair CLR 14 6 59% 75.72 0.0
16 14:55 W 7 16.09 Fair CLR 14 6 59% 75.72 0.0
16 14:35 Vrbl 4 16.09 Fair CLR 13 6 63% 75.69 0.0
16 14:15 Vrbl 6 16.09 Fair CLR 12 6 67% 75.69 0.0
16 13:55 NW 7 16.09 Fair CLR 12 6 11.9 3.4 67% 75.69 0.0
16 13:35 Vrbl 6 16.09 Fair CLR 11 6 72% 75.69 0.0
16 13:15 Vrbl 7 16.09 Fair CLR 10 6 76% 9 75.69 0.0
16 12:55 N 7 16.09 Fair CLR 9 6 82% 8 75.69 0.0
16 12:35 N 9 16.09 Fair CLR 9 6 82% 8 75.69 0.0
16 12:15 N 13 16.09 Partly Cloudy SCT009 8 6 87% 6 75.69 0.0
16 11:55 Vrbl 4 16.09 Overcast OVC007 7 6 93% 75.69 0.0
16 11:35 N 6 16.09 Overcast OVC003 6 6 100% 75.67 0.0
16 11:15 N 7 0.80 Fog OVC001 5 5 100% 4 75.67 0.0
16 10:55 N 17 0.40 Fog OVC001 4 4 100% 1 75.64 0.0
16 10:35 N 11 8.05 Fog/Mist OVC001 4 4 100% 2 75.67 0.0
16 10:15 N 9 0.80 Fog BKN001 4 4 100% 2 75.67 0.0
16 09:55 N 11 0.80 Fog OVC001 4 4 100% 2 75.67 0.0
16 09:35 N 9 0.80 Fog OVC001 4 4 100% 2 75.67 0.0
16 09:15 N 7 0.80 Fog OVC001 4 4 100% 2 75.67 0.0
16 08:55 N 11 0.80 Fog BKN001 4 4 100% 2 75.67 0.0
16 08:35 N 7 0.40 Fog VV002 4 4 100% 2 75.64 0.0
16 08:15 N 9 0.80 Fog VV005 4 4 100% 2 75.62 0.0
16 07:55 N 13 0.40 Fog VV002 3 3 5.7 3.3 100% 0 75.59 0.0
16 07:35 N 11 0.40 Fog VV002 3 3 100% 0 75.59 0.0
16 07:15 N 15 0.24 Fog VV000 4 4 100% 1 75.57 0.0
16 06:55 N 7 0.24 Fog VV000 4 4 100% 2 75.57 0.0
16 06:35 N 6 0.80 Fog VV005 4 4 100% 75.57 0.0
16 06:15 N 6 0.40 Fog VV002 5 5 100% 75.54 0.0
16 05:55 N 7 0.40 Fog VV002 5 5 100% 4 75.54 0.0
16 05:35 N 6 0.40 Fog VV002 5 5 100% 75.51 0.0
16 05:15 NW 6 0.40 Fog OVC002 5 5 100% 75.49 0.0
16 04:55 W 6 0.80 Fog OVC002 5 5 100% 75.51 0.0
16 04:35 W 6 0.40 Fog BKN002 5 5 100% 75.51 0.0
16 04:15 W 7 0.40 Fog VV002 5 5 100% 4 75.49 0.0
16 03:55 NW 9 0.40 Fog VV002 5 5 100% 3 75.49 0.0
16 03:35 NW 4 0.40 Fog VV002 5 5 100% 75.49 0.0
16 03:15 NW 7 0.80 Fog BKN003 4 4 100% 2 75.51 0.0
16 02:55 NW 4 0.80 Fog OVC003 4 4 100% 75.49 0.0
16 02:35 N 2 0.80 Fog OVC005 4 4 100% 75.54 0.0
16 02:15 W 4 0.80 Fog OVC005 4 4 100% 75.51 0.0
16 01:55 W 7 0.80 Fog OVC005 4 4 9.1 3.8 100% 2 75.57 0.0
16 01:35 S 6 1.21 Fog/Mist OVC003 4 4 100% 75.57 0.0
16 01:15 W 7 0.80 Fog OVC003 4 4 100% 2 75.57 0.0
16 00:55 NW 4 0.40 Fog VV002 5 5 100% 75.54 0.0
16 00:35 N 7 0.40 Fog VV002 5 5 100% 4 75.57 0.0
16 00:15 N 6 0.24 Fog VV000 5 5 100% 75.57 0.0
15 23:55 S 4 0.24 Fog VV000 5 5 100% 75.59 0.0
15 23:35 S 6 0.40 Fog BKN001 5 5 100% 75.59 0.0
15 23:15 Vrbl 2 0.40 Fog BKN003 5 5 100% 75.57 0.0
15 22:55 NE 4 0.80 Fog OVC003 5 5 100% 75.57 0.0
15 22:35 N 4 6.44 Fog/Mist OVC003 5 5 100% 75.59 0.0
15 22:15 NW 4 16.09 Overcast OVC003 6 5 93% 75.59 0.0
15 21:55 NW 6 16.09 Overcast OVC003 6 5 93% 75.62 0.0
15 21:35 E 6 16.09 Overcast OVC003 7 6 93% 75.54 0.0
15 21:15 NE 4 16.09 Overcast OVC003 7 5 87% 75.57 0.0
15 20:55 N 2 16.09 Overcast OVC003 7 5 87% 75.59 0.0
15 20:35 N 6 16.09 Overcast OVC003 7 6 93% 75.57 0.0
15 20:15 N 7 1.21 Fog/Mist OVC003 8 8 100% 7 75.59 0.0
15 19:55 N 7 1.21 Fog/Mist BKN003 OVC011 8 8 13.9 7.6 100% 7 75.59 0.0
15 19:35 SW 13 16.09 Overcast OVC013 8 8 100% 6 75.57 0.0
15 19:15 SW 17 16.09 Overcast OVC013 9 8 94% 7 75.59 0.0
15 18:55 SW 13 16.09 Overcast OVC013 9 8 94% 7 75.54 0.0
15 18:35 SW 11 16.09 Overcast OVC013 10 8 88% 9 75.54 0.0
15 18:15 SW 9 16.09 Overcast OVC013 11 9 88% 75.54 0.0
15 17:55 SW 9 16.09 Overcast OVC015 11 9 88% 75.54 0.0
15 17:35 SW 13 16.09 Overcast OVC017 12 9 82% 75.54 0.0
15 17:15 SW 6 16.09 Overcast OVC017 13 10 82% 75.51 0.0
15 16:55 W 6 16.09 Overcast SCT019 OVC043 14 10 77% 75.51 0.0
15 16:35 W 6 16.09 Overcast OVC043 13 10 82% 75.54 0.0
15 16:15 W 6 16.09 Overcast OVC043 12 10 88% 75.54 0.0
15 15:55 SW 4 16.09 Overcast SCT013 OVC045 12 10 88% 75.54 0.0
15 15:35 W 6 16.09 Overcast OVC013 12 10 88% 75.59 0.0
15 15:15 W 6 16.09 Overcast OVC009 12 10 88% 75.59 0.0
15 14:55 Calm 16.09 Overcast OVC009 11 9 88% 75.59 0.0
15 14:35 Vrbl 6 16.09 Overcast OVC007 10 9 94% 75.59 0.0
15 14:15 Vrbl 4 16.09 Overcast OVC007 10 8 88% 75.59 0.0
15 13:55 Vrbl 2 16.09 Overcast OVC005 9 8 9.2 3.5 94% 75.59 0.0
15 13:35 NE 6 16.09 Overcast OVC005 9 8 94% 75.59 0.0
15 13:15 E 6 16.09 Overcast OVC005 8 7 93% 75.59 0.0
15 12:55 E 6 16.09 Overcast OVC003 7 7 100% 75.62 0.0
15 12:35 NE 4 16.09 Overcast OVC003 7 7 100% 75.62 0.0
15 12:15 E 6 9.66 Fog/Mist OVC001 6 6 100% 75.62 0.0
15 11:55 E 7 4.83 Fog/Mist OVC001 6 6 100% 5 75.59 0.0
15 11:35 NE 7 0.40 Fog OVC001 6 6 100% 5 75.59 0.0
15 11:15 E 6 0.24 Fog BKN001 5 5 100% 75.57 0.0
15 10:55 NE 7 0.24 Fog VV000 5 5 100% 4 75.57 0.0
15 10:35 NE 7 0.24 Fog VV000 4 4 100% 2 75.57 0.0
15 10:15 NE 7 0.24 Fog VV000 4 4 100% 2 75.57 0.0
15 09:55 NE 6 0.24 Fog VV000 4 4 100% 75.57 0.0
15 09:35 NE 9 0.24 Fog VV000 4 4 100% 2 75.57 0.0
15 09:15 N 7 0.24 Fog VV000 4 4 100% 2 75.57 0.0
15 08:55 NE 6 0.24 Fog VV000 4 4 100% 75.59 0.0
15 08:35 E 4 0.24 Fog VV000 4 4 100% 75.59 0.0
15 08:15 Vrbl 2 0.24 Fog VV000 4 4 100% 75.59 0.0
15 07:55 NE 4 0.24 Fog VV000 4 4 5 2.5 100% 75.54 0.0
15 07:35 NE 6 0.24 Fog BKN003 4 4 100% 75.51 0.0
15 07:15 E 4 0.24 Fog OVC003 3 3 100% 75.51 0.0
15 06:55 E 4 0.24 Fog OVC004 4 4 100% 75.49 0.0
15 06:35 N 6 0.80 Fog OVC004 4 4 100% 75.49 0.0
15 06:15 N 4 0.80 Fog OVC004 3 3 100% 75.49 0.0
15 05:55 SE 4 0.80 Fog OVC002 4 4 100% 75.51 0.0
15 05:35 NE 4 0.80 Fog OVC002 4 4 100% 75.49 0.0
15 05:15 E 6 0.40 Fog BKN002 BKN006 4 4 100% 75.49 0.0
15 04:55 E 7 0.40 Fog BKN006 4 4 100% 2 75.44 0.0
15 04:35 NE 6 0.40 Fog BKN002 4 4 100% 75.46 0.0
15 04:15 NE 6 0.80 Fog OVC002 4 4 100% 75.44 0.0
15 03:55 NE 6 3.22 Fog/Mist OVC002 4 4 100% 75.41 0.0
15 03:35 N 7 2.01 Fog/Mist OVC002 4 4 100% 2 75.41 0.0
15 03:15 N 6 9.66 Fog/Mist OVC002 4 4 100% 75.44 0.0
15 02:55 E 7 12.87 Overcast OVC002 5 5 100% 4 75.44 0.0 0.08
15 02:35 SE 9 16.09 Light Rain OVC002 4 4 100% 2 75.44 0.0
15 02:15 SE 17 16.09 Light Rain OVC002 5 5 100% 2 75.44 0.0
15 01:55 SE 9 16.09 Overcast OVC002 5 5 7.8 5 100% 3 75.46 0.0
15 01:35 E 11 16.09 Overcast OVC004 5 5 100% 3 75.44 0.0
15 01:15 E 11 16.09 Overcast OVC004 5 5 100% 3 75.44 0.0
15 00:55 E 15 16.09 Overcast OVC004 5 5 100% 2 75.41 0.0
15 00:35 E 11 16.09 Overcast OVC004 5 5 100% 3 75.44 0.0
15 00:15 NE 15 16.09 Overcast OVC004 6 6 100% 3 75.46 0.0
14 23:55 E 13 16.09 Overcast OVC006 6 6 100% 4 75.49 0.0
14 23:35 E 7 16.09 Light Rain OVC006 6 6 100% 5 75.54 0.0
14 23:15 E 11 16.09 Overcast BKN008 OVC022 6 6 100% 4 75.57 0.0
14 22:55 E 9 16.09 Overcast OVC020 6 6 100% 4 75.57 0.0
14 22:35 E 6 16.09 Overcast OVC018 6 6 100% 75.59 0.0
14 22:15 N 9 16.09 Overcast SCT005 OVC016 7 7 100% 5 75.64 0.0
14 21:55 N 6 16.09 Overcast BKN005 OVC014 6 6 100% 75.64 0.0
14 21:35 SE 9 16.09 Overcast SCT003 SCT007 OVC012 6 6 100% 4 75.62 0.0
14 21:15 E 15 2.01 Fog/Mist OVC001 7 7 100% 5 75.57 0.0
14 20:55 SE 15 1.21 Fog/Mist OVC001 7 7 100% 5 75.57 0.0
14 20:35 N 11 0.24 Fog BKN001 7 7 100% 5 75.57 0.0
14 20:15 Vrbl 7 0.24 Fog OVC002 6 6 100% 5 75.59 0.0
14 19:55 S 11 0.24 Fog OVC002 7 7 10.7 6.5 100% 5 75.59 0.0
14 19:35 SE 7 16.09 Overcast OVC004 7 7 100% 6 75.62 0.0
14 19:15 SE 15 2.01 Fog/Mist OVC004 7 7 100% 5 75.62 0.0
14 18:55 S 6 12.87 Overcast OVC004 8 7 93% 75.69 0.0
14 18:35 SE 19 16.09 Overcast OVC006 8 7 93% 5 75.62 0.0
14 18:15 S 11 16.09 Overcast OVC006 8 7 93% 6 75.64 0.0
14 17:55 S 11 16.09 Overcast OVC008 8 7 93% 6 75.62 0.0
14 17:35 S 13 16.09 Overcast OVC008 9 7 87% 7 75.62 0.0
14 17:15 S 13 16.09 Overcast OVC006 9 7 87% 7 75.62 0.0
14 16:55 S 9 16.09 Overcast OVC006 8 7 93% 7 75.64 0.0
14 16:35 SE 17 16.09 Overcast OVC008 9 8 94% 7 75.64 0.0
14 16:15 S 15 16.09 Overcast OVC012 9 8 94% 7 75.69 0.0
14 15:55 S 13 16.09 Overcast OVC012 10 8 88% 8 75.69 0.0
14 15:35 S 15 16.09 Overcast OVC010 11 8 82% 75.67 0.0
14 15:15 S 6 16.09 Overcast OVC010 10 8 88% 75.67 0.0
14 14:55 S 7 16.09 Overcast OVC008 10 8 88% 9 75.69 0.0
14 14:35 SE 7 16.09 Overcast OVC008 9 8 94% 8 75.72 0.0
14 14:15 SE 11 16.09 Overcast OVC008 8 7 93% 6 75.69 0.0
14 13:55 SW 11 16.09 Overcast OVC006 8 7 8.6 3.8 93% 6 75.69 0.0
14 13:35 SW 4 0.24 Fog OVC006 8 7 93% 75.69 0.0
14 13:15 NE 2 0.24 Fog BKN004 8 8 100% 75.69 0.0
14 12:55 E 2 0.24 Fog OVC002 7 7 100% 75.69 0.0
14 12:35 E 6 0.40 Fog OVC002 7 7 100% 75.67 0.0
Date Time (edt) Wind (kph) Vis. (km) Weather Sky Cond. Air Dwpt Max. Min. Relative Humidity Wind Chill (°C) Heat Index (°C) altimeter (cm) sea level (mb) 1 hr 3 hr 6 hr
6 hour
Temperature (ºC) Pressure Precipitation (cm)